sensor_id;sensor_type;location;lat;lon;timestamp;temperature;humidity
18434;DHT22;9344;52.294;13.626;2022-07-24T00:00:29;13.90;1.00
18434;DHT22;9344;52.294;13.626;2022-07-24T00:02:56;13.80;14.00
18434;DHT22;9344;52.294;13.626;2022-07-24T00:05:23;13.80;45.10
18434;DHT22;9344;52.294;13.626;2022-07-24T00:07:49;13.70;59.60
18434;DHT22;9344;52.294;13.626;2022-07-24T00:10:16;13.70;82.50
18434;DHT22;9344;52.294;13.626;2022-07-24T00:12:42;13.70;99.90
18434;DHT22;9344;52.294;13.626;2022-07-24T00:15:10;13.70;99.90
18434;DHT22;9344;52.294;13.626;2022-07-24T00:17:37;13.70;98.70
18434;DHT22;9344;52.294;13.626;2022-07-24T00:20:05;13.60;99.90
18434;DHT22;9344;52.294;13.626;2022-07-24T00:22:32;13.70;99.90
18434;DHT22;9344;52.294;13.626;2022-07-24T00:24:59;13.70;99.90
18434;DHT22;9344;52.294;13.626;2022-07-24T00:27:25;13.70;99.90
18434;DHT22;9344;52.294;13.626;2022-07-24T00:29:52;13.70;99.90
18434;DHT22;9344;52.294;13.626;2022-07-24T00:32:19;13.60;99.90
18434;DHT22;9344;52.294;13.626;2022-07-24T00:34:46;13.60;99.90
18434;DHT22;9344;52.294;13.626;2022-07-24T00:37:13;13.60;99.90
18434;DHT22;9344;52.294;13.626;2022-07-24T00:39:39;13.50;99.90
18434;DHT22;9344;52.294;13.626;2022-07-24T00:42:06;13.60;99.90
18434;DHT22;9344;52.294;13.626;2022-07-24T00:44:32;13.50;99.90
18434;DHT22;9344;52.294;13.626;2022-07-24T00:46:59;13.50;99.90
18434;DHT22;9344;52.294;13.626;2022-07-24T00:49:27;13.50;99.90
18434;DHT22;9344;52.294;13.626;2022-07-24T00:51:53;13.50;99.90
18434;DHT22;9344;52.294;13.626;2022-07-24T00:54:22;13.40;99.90
18434;DHT22;9344;52.294;13.626;2022-07-24T00:56:50;13.40;99.90
18434;DHT22;9344;52.294;13.626;2022-07-24T00:59:17;13.40;99.90
18434;DHT22;9344;52.294;13.626;2022-07-24T01:01:44;13.40;99.90
18434;DHT22;9344;52.294;13.626;2022-07-24T01:04:11;13.40;99.90
18434;DHT22;9344;52.294;13.626;2022-07-24T01:06:41;13.40;99.90
18434;DHT22;9344;52.294;13.626;2022-07-24T01:09:07;13.40;99.90
18434;DHT22;9344;52.294;13.626;2022-07-24T01:11:34;13.40;99.90
18434;DHT22;9344;52.294;13.626;2022-07-24T01:14:01;13.30;99.90
18434;DHT22;9344;52.294;13.626;2022-07-24T01:16:28;13.30;99.90
18434;DHT22;9344;52.294;13.626;2022-07-24T01:18:54;13.20;99.90
18434;DHT22;9344;52.294;13.626;2022-07-24T01:21:22;13.20;99.90
18434;DHT22;9344;52.294;13.626;2022-07-24T01:23:49;13.20;99.90
18434;DHT22;9344;52.294;13.626;2022-07-24T01:26:15;13.20;99.90
18434;DHT22;9344;52.294;13.626;2022-07-24T01:28:42;13.10;99.90
18434;DHT22;9344;52.294;13.626;2022-07-24T01:31:09;13.10;99.90
18434;DHT22;9344;52.294;13.626;2022-07-24T01:33:35;13.10;99.90
18434;DHT22;9344;52.294;13.626;2022-07-24T01:36:02;13.10;99.90
18434;DHT22;9344;52.294;13.626;2022-07-24T01:38:30;13.00;99.90
18434;DHT22;9344;52.294;13.626;2022-07-24T01:40:57;13.00;99.90
18434;DHT22;9344;52.294;13.626;2022-07-24T01:43:23;13.00;99.90
18434;DHT22;9344;52.294;13.626;2022-07-24T01:45:50;13.00;99.90
18434;DHT22;9344;52.294;13.626;2022-07-24T01:48:16;13.00;99.90
18434;DHT22;9344;52.294;13.626;2022-07-24T01:50:43;13.00;99.90
18434;DHT22;9344;52.294;13.626;2022-07-24T01:53:09;12.90;99.90
18434;DHT22;9344;52.294;13.626;2022-07-24T01:55:37;12.90;99.90
18434;DHT22;9344;52.294;13.626;2022-07-24T01:58:04;12.90;99.90
18434;DHT22;9344;52.294;13.626;2022-07-24T02:00:30;12.90;99.90
18434;DHT22;9344;52.294;13.626;2022-07-24T02:02:57;12.90;99.90
18434;DHT22;9344;52.294;13.626;2022-07-24T02:05:23;12.90;99.90
18434;DHT22;9344;52.294;13.626;2022-07-24T02:07:55;12.90;99.90
18434;DHT22;9344;52.294;13.626;2022-07-24T02:10:22;12.90;99.90
18434;DHT22;9344;52.294;13.626;2022-07-24T02:12:50;12.80;99.90
18434;DHT22;9344;52.294;13.626;2022-07-24T02:15:17;12.80;99.90
18434;DHT22;9344;52.294;13.626;2022-07-24T02:17:46;12.80;99.90
18434;DHT22;9344;52.294;13.626;2022-07-24T02:20:12;12.80;99.90
18434;DHT22;9344;52.294;13.626;2022-07-24T02:22:39;12.80;99.90
18434;DHT22;9344;52.294;13.626;2022-07-24T02:25:07;12.70;99.90
18434;DHT22;9344;52.294;13.626;2022-07-24T02:27:34;12.80;99.90
18434;DHT22;9344;52.294;13.626;2022-07-24T02:30:02;12.70;99.90
18434;DHT22;9344;52.294;13.626;2022-07-24T02:32:29;12.70;99.90
18434;DHT22;9344;52.294;13.626;2022-07-24T02:34:55;12.60;99.90
18434;DHT22;9344;52.294;13.626;2022-07-24T02:37:22;12.60;99.90
18434;DHT22;9344;52.294;13.626;2022-07-24T02:39:48;12.60;99.90
18434;DHT22;9344;52.294;13.626;2022-07-24T02:42:15;12.60;99.90
18434;DHT22;9344;52.294;13.626;2022-07-24T02:44:41;12.60;99.90
18434;DHT22;9344;52.294;13.626;2022-07-24T02:47:09;12.60;99.90
18434;DHT22;9344;52.294;13.626;2022-07-24T02:49:36;12.60;99.90
18434;DHT22;9344;52.294;13.626;2022-07-24T02:52:03;12.60;99.90
18434;DHT22;9344;52.294;13.626;2022-07-24T02:54:29;12.50;99.90
18434;DHT22;9344;52.294;13.626;2022-07-24T02:56:56;12.50;99.90
18434;DHT22;9344;52.294;13.626;2022-07-24T02:59:23;12.50;99.90
18434;DHT22;9344;52.294;13.626;2022-07-24T03:01:49;12.50;99.90
18434;DHT22;9344;52.294;13.626;2022-07-24T03:04:17;12.50;99.90
18434;DHT22;9344;52.294;13.626;2022-07-24T03:06:44;12.40;99.90
18434;DHT22;9344;52.294;13.626;2022-07-24T03:09:10;12.40;99.90
18434;DHT22;9344;52.294;13.626;2022-07-24T03:11:36;12.40;99.90
18434;DHT22;9344;52.294;13.626;2022-07-24T03:14:03;12.30;99.90
18434;DHT22;9344;52.294;13.626;2022-07-24T03:16:30;12.30;99.90
18434;DHT22;9344;52.294;13.626;2022-07-24T03:18:56;12.40;99.90
18434;DHT22;9344;52.294;13.626;2022-07-24T03:21:24;12.40;99.90
18434;DHT22;9344;52.294;13.626;2022-07-24T03:23:51;12.40;99.90
18434;DHT22;9344;52.294;13.626;2022-07-24T03:26:17;12.50;99.90
18434;DHT22;9344;52.294;13.626;2022-07-24T03:28:44;12.50;99.90
18434;DHT22;9344;52.294;13.626;2022-07-24T03:31:10;12.50;99.90
18434;DHT22;9344;52.294;13.626;2022-07-24T03:33:37;12.60;99.90
18434;DHT22;9344;52.294;13.626;2022-07-24T03:36:04;12.60;99.90
18434;DHT22;9344;52.294;13.626;2022-07-24T03:38:32;12.70;99.90
18434;DHT22;9344;52.294;13.626;2022-07-24T03:40:58;12.70;99.90
18434;DHT22;9344;52.294;13.626;2022-07-24T03:43:25;12.80;99.90
18434;DHT22;9344;52.294;13.626;2022-07-24T03:45:51;12.80;99.90
18434;DHT22;9344;52.294;13.626;2022-07-24T03:48:18;12.90;99.90
18434;DHT22;9344;52.294;13.626;2022-07-24T03:50:44;13.00;99.90
18434;DHT22;9344;52.294;13.626;2022-07-24T03:53:11;13.10;99.90
18434;DHT22;9344;52.294;13.626;2022-07-24T03:55:39;13.10;99.90
18434;DHT22;9344;52.294;13.626;2022-07-24T03:58:05;13.20;99.90
18434;DHT22;9344;52.294;13.626;2022-07-24T04:00:32;13.20;99.90
18434;DHT22;9344;52.294;13.626;2022-07-24T04:02:58;13.30;99.90
18434;DHT22;9344;52.294;13.626;2022-07-24T04:05:25;13.40;99.90
18434;DHT22;9344;52.294;13.626;2022-07-24T04:07:51;13.40;99.90
18434;DHT22;9344;52.294;13.626;2022-07-24T04:10:18;13.50;99.90
18434;DHT22;9344;52.294;13.626;2022-07-24T04:12:45;13.70;99.90
18434;DHT22;9344;52.294;13.626;2022-07-24T04:15:12;14.00;99.90
18434;DHT22;9344;52.294;13.626;2022-07-24T04:17:40;14.20;99.90
18434;DHT22;9344;52.294;13.626;2022-07-24T04:20:08;14.60;99.90
18434;DHT22;9344;52.294;13.626;2022-07-24T04:22:35;16.40;99.90
18434;DHT22;9344;52.294;13.626;2022-07-24T04:25:02;19.10;99.90
18434;DHT22;9344;52.294;13.626;2022-07-24T04:27:28;22.50;99.90
18434;DHT22;9344;52.294;13.626;2022-07-24T04:29:56;25.20;99.90
18434;DHT22;9344;52.294;13.626;2022-07-24T04:32:23;27.20;99.90
18434;DHT22;9344;52.294;13.626;2022-07-24T04:34:50;28.80;99.90
18434;DHT22;9344;52.294;13.626;2022-07-24T04:37:16;30.30;97.50
18434;DHT22;9344;52.294;13.626;2022-07-24T04:39:43;31.30;93.00
18434;DHT22;9344;52.294;13.626;2022-07-24T04:42:09;32.10;89.40
18434;DHT22;9344;52.294;13.626;2022-07-24T04:44:36;33.10;81.70
18434;DHT22;9344;52.294;13.626;2022-07-24T04:47:04;33.80;77.40
18434;DHT22;9344;52.294;13.626;2022-07-24T04:49:30;34.50;72.40
18434;DHT22;9344;52.294;13.626;2022-07-24T04:51:57;35.10;68.80
18434;DHT22;9344;52.294;13.626;2022-07-24T04:54:23;35.30;64.80
18434;DHT22;9344;52.294;13.626;2022-07-24T04:56:50;36.10;62.40
18434;DHT22;9344;52.294;13.626;2022-07-24T04:59:16;36.70;60.20
18434;DHT22;9344;52.294;13.626;2022-07-24T05:01:43;37.00;58.40
18434;DHT22;9344;52.294;13.626;2022-07-24T05:04:10;37.90;56.60
18434;DHT22;9344;52.294;13.626;2022-07-24T05:06:37;38.10;55.00
18434;DHT22;9344;52.294;13.626;2022-07-24T05:09:04;38.90;53.10
18434;DHT22;9344;52.294;13.626;2022-07-24T05:11:31;39.10;51.20
18434;DHT22;9344;52.294;13.626;2022-07-24T05:13:58;39.30;50.40
18434;DHT22;9344;52.294;13.626;2022-07-24T05:16:24;39.90;49.30
18434;DHT22;9344;52.294;13.626;2022-07-24T05:18:51;39.80;99.90
18434;DHT22;9344;52.294;13.626;2022-07-24T05:21:19;40.20;99.90
18434;DHT22;9344;52.294;13.626;2022-07-24T05:23:45;40.70;99.90
18434;DHT22;9344;52.294;13.626;2022-07-24T05:26:12;40.90;1.00
18434;DHT22;9344;52.294;13.626;2022-07-24T05:28:38;41.20;1.00
18434;DHT22;9344;52.294;13.626;2022-07-24T05:31:05;41.40;1.00
18434;DHT22;9344;52.294;13.626;2022-07-24T05:33:33;41.80;99.90
18434;DHT22;9344;52.294;13.626;2022-07-24T05:36:00;42.50;1.00
18434;DHT22;9344;52.294;13.626;2022-07-24T05:38:28;42.90;99.90
18434;DHT22;9344;52.294;13.626;2022-07-24T05:40:55;43.20;1.00
18434;DHT22;9344;52.294;13.626;2022-07-24T05:43:21;43.20;90.20
18434;DHT22;9344;52.294;13.626;2022-07-24T05:45:48;43.80;1.00
18434;DHT22;9344;52.294;13.626;2022-07-24T05:48:14;43.90;99.90
18434;DHT22;9344;52.294;13.626;2022-07-24T05:50:41;44.60;11.50
18434;DHT22;9344;52.294;13.626;2022-07-24T05:53:07;44.80;1.00
18434;DHT22;9344;52.294;13.626;2022-07-24T05:55:35;45.10;1.00
18434;DHT22;9344;52.294;13.626;2022-07-24T05:58:02;45.60;99.90
18434;DHT22;9344;52.294;13.626;2022-07-24T06:00:29;46.10;99.90
18434;DHT22;9344;52.294;13.626;2022-07-24T06:02:56;46.60;99.90
18434;DHT22;9344;52.294;13.626;2022-07-24T06:05:22;46.70;1.00
18434;DHT22;9344;52.294;13.626;2022-07-24T06:07:49;46.80;1.00
18434;DHT22;9344;52.294;13.626;2022-07-24T06:10:15;47.10;1.00
18434;DHT22;9344;52.294;13.626;2022-07-24T06:12:43;47.10;1.00
18434;DHT22;9344;52.294;13.626;2022-07-24T06:15:10;47.20;1.00
18434;DHT22;9344;52.294;13.626;2022-07-24T06:17:37;47.70;99.90
18434;DHT22;9344;52.294;13.626;2022-07-24T06:20:04;48.10;99.90
18434;DHT22;9344;52.294;13.626;2022-07-24T06:22:31;48.40;99.90
18434;DHT22;9344;52.294;13.626;2022-07-24T06:24:57;48.90;99.90
18434;DHT22;9344;52.294;13.626;2022-07-24T06:27:24;48.80;99.90
18434;DHT22;9344;52.294;13.626;2022-07-24T06:29:52;48.60;99.90
18434;DHT22;9344;52.294;13.626;2022-07-24T06:32:18;49.00;99.90
18434;DHT22;9344;52.294;13.626;2022-07-24T06:34:45;48.80;99.90
18434;DHT22;9344;52.294;13.626;2022-07-24T06:37:11;49.50;99.90
18434;DHT22;9344;52.294;13.626;2022-07-24T06:39:38;49.80;99.90
18434;DHT22;9344;52.294;13.626;2022-07-24T06:42:05;50.40;99.90
18434;DHT22;9344;52.294;13.626;2022-07-24T06:44:31;50.40;99.90
18434;DHT22;9344;52.294;13.626;2022-07-24T06:47:00;50.70;99.90
18434;DHT22;9344;52.294;13.626;2022-07-24T06:49:27;50.50;99.90
18434;DHT22;9344;52.294;13.626;2022-07-24T06:51:53;50.10;99.90
18434;DHT22;9344;52.294;13.626;2022-07-24T06:54:20;50.80;99.90
18434;DHT22;9344;52.294;13.626;2022-07-24T06:56:47;50.90;99.90
18434;DHT22;9344;52.294;13.626;2022-07-24T06:59:13;50.50;99.90
18434;DHT22;9344;52.294;13.626;2022-07-24T07:01:40;51.20;99.90
18434;DHT22;9344;52.294;13.626;2022-07-24T07:04:08;51.10;99.90
18434;DHT22;9344;52.294;13.626;2022-07-24T07:06:34;51.50;99.90
18434;DHT22;9344;52.294;13.626;2022-07-24T07:09:01;51.00;99.90
18434;DHT22;9344;52.294;13.626;2022-07-24T07:11:27;51.70;99.90
18434;DHT22;9344;52.294;13.626;2022-07-24T07:13:54;51.30;99.90
18434;DHT22;9344;52.294;13.626;2022-07-24T07:16:20;51.70;99.90
18434;DHT22;9344;52.294;13.626;2022-07-24T07:18:47;51.40;99.90
18434;DHT22;9344;52.294;13.626;2022-07-24T07:21:16;51.60;99.90
18434;DHT22;9344;52.294;13.626;2022-07-24T07:23:42;51.70;99.90
18434;DHT22;9344;52.294;13.626;2022-07-24T07:26:09;51.40;99.90
18434;DHT22;9344;52.294;13.626;2022-07-24T07:28:35;51.00;99.90
18434;DHT22;9344;52.294;13.626;2022-07-24T07:31:02;51.80;99.90
18434;DHT22;9344;52.294;13.626;2022-07-24T07:33:28;52.10;99.90
18434;DHT22;9344;52.294;13.626;2022-07-24T07:35:55;52.00;99.90
18434;DHT22;9344;52.294;13.626;2022-07-24T07:38:23;51.90;99.90
18434;DHT22;9344;52.294;13.626;2022-07-24T07:40:49;52.40;99.90
18434;DHT22;9344;52.294;13.626;2022-07-24T07:43:16;52.90;99.90
18434;DHT22;9344;52.294;13.626;2022-07-24T07:45:42;52.40;99.90
18434;DHT22;9344;52.294;13.626;2022-07-24T07:48:09;52.40;99.90
18434;DHT22;9344;52.294;13.626;2022-07-24T07:50:35;52.40;99.90
18434;DHT22;9344;52.294;13.626;2022-07-24T07:53:02;52.60;99.90
18434;DHT22;9344;52.294;13.626;2022-07-24T07:55:30;52.80;99.90
18434;DHT22;9344;52.294;13.626;2022-07-24T07:57:56;52.80;99.90
18434;DHT22;9344;52.294;13.626;2022-07-24T08:00:23;52.90;99.90
18434;DHT22;9344;52.294;13.626;2022-07-24T08:02:49;52.90;99.90
18434;DHT22;9344;52.294;13.626;2022-07-24T08:05:16;52.70;99.90
18434;DHT22;9344;52.294;13.626;2022-07-24T08:07:43;52.60;99.90
18434;DHT22;9344;52.294;13.626;2022-07-24T08:10:09;52.50;99.90
18434;DHT22;9344;52.294;13.626;2022-07-24T08:12:37;52.90;99.90
18434;DHT22;9344;52.294;13.626;2022-07-24T08:15:05;53.00;99.90
18434;DHT22;9344;52.294;13.626;2022-07-24T08:17:32;53.10;99.90
18434;DHT22;9344;52.294;13.626;2022-07-24T08:19:58;53.30;99.90
18434;DHT22;9344;52.294;13.626;2022-07-24T08:22:25;53.50;99.90
18434;DHT22;9344;52.294;13.626;2022-07-24T08:24:51;53.60;99.90
18434;DHT22;9344;52.294;13.626;2022-07-24T08:27:18;53.40;99.90
18434;DHT22;9344;52.294;13.626;2022-07-24T08:29:45;53.50;99.90
18434;DHT22;9344;52.294;13.626;2022-07-24T08:32:12;53.30;99.90
18434;DHT22;9344;52.294;13.626;2022-07-24T08:34:38;53.20;99.90
18434;DHT22;9344;52.294;13.626;2022-07-24T08:37:05;53.30;99.90
18434;DHT22;9344;52.294;13.626;2022-07-24T08:39:32;53.70;99.90
18434;DHT22;9344;52.294;13.626;2022-07-24T08:41:58;53.40;99.90
18434;DHT22;9344;52.294;13.626;2022-07-24T08:44:25;53.60;99.90
18434;DHT22;9344;52.294;13.626;2022-07-24T08:46:53;53.40;99.90
18434;DHT22;9344;52.294;13.626;2022-07-24T08:49:21;53.20;99.90
18434;DHT22;9344;52.294;13.626;2022-07-24T08:51:49;53.80;99.90
18434;DHT22;9344;52.294;13.626;2022-07-24T08:54:15;53.90;99.90
18434;DHT22;9344;52.294;13.626;2022-07-24T08:56:42;53.80;99.90
18434;DHT22;9344;52.294;13.626;2022-07-24T08:59:16;53.20;99.90
18434;DHT22;9344;52.294;13.626;2022-07-24T09:01:43;52.90;99.90
18434;DHT22;9344;52.294;13.626;2022-07-24T09:04:32;53.10;99.90
18434;DHT22;9344;52.294;13.626;2022-07-24T09:07:01;52.80;99.90
18434;DHT22;9344;52.294;13.626;2022-07-24T09:09:28;53.20;99.90
18434;DHT22;9344;52.294;13.626;2022-07-24T09:12:03;53.20;99.90
18434;DHT22;9344;52.294;13.626;2022-07-24T09:14:30;52.40;99.90
18434;DHT22;9344;52.294;13.626;2022-07-24T09:17:02;52.40;99.90
18434;DHT22;9344;52.294;13.626;2022-07-24T09:19:29;52.40;99.90
18434;DHT22;9344;52.294;13.626;2022-07-24T09:21:57;52.40;99.90
18434;DHT22;9344;52.294;13.626;2022-07-24T09:24:23;52.40;99.90
18434;DHT22;9344;52.294;13.626;2022-07-24T09:26:52;52.60;99.90
18434;DHT22;9344;52.294;13.626;2022-07-24T09:29:20;52.40;99.90
18434;DHT22;9344;52.294;13.626;2022-07-24T09:31:51;52.10;99.90
18434;DHT22;9344;52.294;13.626;2022-07-24T09:34:18;51.50;99.90
18434;DHT22;9344;52.294;13.626;2022-07-24T09:36:55;51.80;99.90
18434;DHT22;9344;52.294;13.626;2022-07-24T09:39:23;52.10;99.90
18434;DHT22;9344;52.294;13.626;2022-07-24T09:41:51;52.00;99.90
18434;DHT22;9344;52.294;13.626;2022-07-24T09:44:19;52.10;99.90
18434;DHT22;9344;52.294;13.626;2022-07-24T09:46:47;52.00;99.90
18434;DHT22;9344;52.294;13.626;2022-07-24T09:49:18;51.50;99.90
18434;DHT22;9344;52.294;13.626;2022-07-24T09:52:07;51.10;99.90
18434;DHT22;9344;52.294;13.626;2022-07-24T09:54:38;50.80;99.90
18434;DHT22;9344;52.294;13.626;2022-07-24T09:57:19;49.90;99.90
18434;DHT22;9344;52.294;13.626;2022-07-24T09:59:48;49.60;99.90
18434;DHT22;9344;52.294;13.626;2022-07-24T10:02:16;49.10;99.90
18434;DHT22;9344;52.294;13.626;2022-07-24T10:04:44;48.90;99.90
18434;DHT22;9344;52.294;13.626;2022-07-24T10:07:12;47.90;99.90
18434;DHT22;9344;52.294;13.626;2022-07-24T10:09:42;47.50;99.90
18434;DHT22;9344;52.294;13.626;2022-07-24T10:12:12;46.90;99.90
18434;DHT22;9344;52.294;13.626;2022-07-24T10:14:40;46.40;99.90
18434;DHT22;9344;52.294;13.626;2022-07-24T10:17:09;45.40;99.90
18434;DHT22;9344;52.294;13.626;2022-07-24T10:19:40;44.90;99.90
18434;DHT22;9344;52.294;13.626;2022-07-24T10:22:10;44.00;99.90
18434;DHT22;9344;52.294;13.626;2022-07-24T10:24:53;42.30;99.90
18434;DHT22;9344;52.294;13.626;2022-07-24T10:27:26;40.60;99.90
18434;DHT22;9344;52.294;13.626;2022-07-24T10:29:54;37.80;99.90
18434;DHT22;9344;52.294;13.626;2022-07-24T10:32:21;34.70;99.90
18434;DHT22;9344;52.294;13.626;2022-07-24T10:34:51;33.50;99.90
18434;DHT22;9344;52.294;13.626;2022-07-24T10:37:24;32.30;99.90
18434;DHT22;9344;52.294;13.626;2022-07-24T10:40:03;31.30;99.90
18434;DHT22;9344;52.294;13.626;2022-07-24T10:42:30;30.50;99.90
18434;DHT22;9344;52.294;13.626;2022-07-24T10:45:14;29.90;99.90
18434;DHT22;9344;52.294;13.626;2022-07-24T10:47:42;29.40;99.90
18434;DHT22;9344;52.294;13.626;2022-07-24T10:50:09;29.20;99.90
18434;DHT22;9344;52.294;13.626;2022-07-24T10:52:36;29.00;99.90
18434;DHT22;9344;52.294;13.626;2022-07-24T10:55:31;28.80;99.90
18434;DHT22;9344;52.294;13.626;2022-07-24T10:58:00;28.60;99.90
18434;DHT22;9344;52.294;13.626;2022-07-24T11:00:30;28.50;99.90
18434;DHT22;9344;52.294;13.626;2022-07-24T11:03:01;28.30;99.90
18434;DHT22;9344;52.294;13.626;2022-07-24T11:05:30;28.20;99.90
18434;DHT22;9344;52.294;13.626;2022-07-24T11:08:25;28.30;99.90
18434;DHT22;9344;52.294;13.626;2022-07-24T11:10:59;27.90;99.90
18434;DHT22;9344;52.294;13.626;2022-07-24T11:13:49;28.00;99.90
18434;DHT22;9344;52.294;13.626;2022-07-24T11:16:22;28.00;99.90
18434;DHT22;9344;52.294;13.626;2022-07-24T11:19:24;28.00;99.90
18434;DHT22;9344;52.294;13.626;2022-07-24T11:22:02;27.90;99.90
18434;DHT22;9344;52.294;13.626;2022-07-24T11:24:29;28.00;99.90
18434;DHT22;9344;52.294;13.626;2022-07-24T11:26:58;28.00;99.90
18434;DHT22;9344;52.294;13.626;2022-07-24T11:29:28;28.00;99.90
18434;DHT22;9344;52.294;13.626;2022-07-24T11:31:56;28.00;99.90
18434;DHT22;9344;52.294;13.626;2022-07-24T11:34:24;28.10;99.90
18434;DHT22;9344;52.294;13.626;2022-07-24T11:36:52;28.00;99.90
18434;DHT22;9344;52.294;13.626;2022-07-24T11:39:25;28.00;99.90
18434;DHT22;9344;52.294;13.626;2022-07-24T11:41:55;27.80;99.90
18434;DHT22;9344;52.294;13.626;2022-07-24T11:44:24;27.80;99.90
18434;DHT22;9344;52.294;13.626;2022-07-24T11:46:51;27.90;99.90
18434;DHT22;9344;52.294;13.626;2022-07-24T11:49:18;28.00;99.90
18434;DHT22;9344;52.294;13.626;2022-07-24T11:51:46;28.00;99.90
18434;DHT22;9344;52.294;13.626;2022-07-24T11:54:14;28.10;99.90
18434;DHT22;9344;52.294;13.626;2022-07-24T11:56:41;28.10;99.90
18434;DHT22;9344;52.294;13.626;2022-07-24T11:59:21;28.10;99.90
18434;DHT22;9344;52.294;13.626;2022-07-24T12:01:49;28.10;99.90
18434;DHT22;9344;52.294;13.626;2022-07-24T12:04:19;28.10;99.90
18434;DHT22;9344;52.294;13.626;2022-07-24T12:06:45;28.10;99.90
18434;DHT22;9344;52.294;13.626;2022-07-24T12:09:12;27.90;99.90
18434;DHT22;9344;52.294;13.626;2022-07-24T12:11:38;27.90;99.90
18434;DHT22;9344;52.294;13.626;2022-07-24T12:14:05;28.00;99.90
18434;DHT22;9344;52.294;13.626;2022-07-24T12:16:38;28.20;99.90
18434;DHT22;9344;52.294;13.626;2022-07-24T12:19:13;28.30;99.90
18434;DHT22;9344;52.294;13.626;2022-07-24T12:21:40;28.20;99.90
18434;DHT22;9344;52.294;13.626;2022-07-24T12:24:07;28.20;99.90
18434;DHT22;9344;52.294;13.626;2022-07-24T12:26:34;28.30;99.90
18434;DHT22;9344;52.294;13.626;2022-07-24T12:29:11;28.30;99.90
18434;DHT22;9344;52.294;13.626;2022-07-24T12:31:38;28.30;99.90
18434;DHT22;9344;52.294;13.626;2022-07-24T12:34:04;28.30;99.90
18434;DHT22;9344;52.294;13.626;2022-07-24T12:36:33;28.10;99.90
18434;DHT22;9344;52.294;13.626;2022-07-24T12:38:59;28.10;99.90
18434;DHT22;9344;52.294;13.626;2022-07-24T12:41:27;27.80;99.90
18434;DHT22;9344;52.294;13.626;2022-07-24T12:43:57;27.90;99.90
18434;DHT22;9344;52.294;13.626;2022-07-24T12:46:28;28.00;99.90
18434;DHT22;9344;52.294;13.626;2022-07-24T12:48:57;28.20;99.90
18434;DHT22;9344;52.294;13.626;2022-07-24T12:51:23;28.20;99.90
18434;DHT22;9344;52.294;13.626;2022-07-24T12:53:54;28.40;99.90
18434;DHT22;9344;52.294;13.626;2022-07-24T12:56:22;28.40;99.90
18434;DHT22;9344;52.294;13.626;2022-07-24T12:58:59;28.40;99.90
18434;DHT22;9344;52.294;13.626;2022-07-24T13:01:28;28.40;99.90
18434;DHT22;9344;52.294;13.626;2022-07-24T13:03:57;28.50;99.90
18434;DHT22;9344;52.294;13.626;2022-07-24T13:06:35;28.50;99.90
18434;DHT22;9344;52.294;13.626;2022-07-24T13:09:05;28.50;99.90
18434;DHT22;9344;52.294;13.626;2022-07-24T13:11:31;28.40;99.90
18434;DHT22;9344;52.294;13.626;2022-07-24T13:13:58;28.40;99.90
18434;DHT22;9344;52.294;13.626;2022-07-24T13:16:27;28.20;99.90
18434;DHT22;9344;52.294;13.626;2022-07-24T13:18:55;27.80;99.90
18434;DHT22;9344;52.294;13.626;2022-07-24T13:21:21;27.70;99.90
18434;DHT22;9344;52.294;13.626;2022-07-24T13:23:48;27.70;99.90
18434;DHT22;9344;52.294;13.626;2022-07-24T13:26:16;27.70;99.90
18434;DHT22;9344;52.294;13.626;2022-07-24T13:28:43;27.80;99.90
18434;DHT22;9344;52.294;13.626;2022-07-24T13:31:09;27.90;99.90
18434;DHT22;9344;52.294;13.626;2022-07-24T13:33:36;28.10;99.90
18434;DHT22;9344;52.294;13.626;2022-07-24T13:36:03;28.10;99.90
18434;DHT22;9344;52.294;13.626;2022-07-24T13:38:30;28.20;99.90
18434;DHT22;9344;52.294;13.626;2022-07-24T13:40:56;28.20;99.90
18434;DHT22;9344;52.294;13.626;2022-07-24T13:43:24;28.20;99.90
18434;DHT22;9344;52.294;13.626;2022-07-24T13:45:51;28.30;99.90
18434;DHT22;9344;52.294;13.626;2022-07-24T13:48:18;28.30;99.90
18434;DHT22;9344;52.294;13.626;2022-07-24T13:50:44;28.40;99.90
18434;DHT22;9344;52.294;13.626;2022-07-24T13:53:11;28.40;99.90
18434;DHT22;9344;52.294;13.626;2022-07-24T13:55:37;28.30;99.90
18434;DHT22;9344;52.294;13.626;2022-07-24T13:58:04;28.40;99.90
18434;DHT22;9344;52.294;13.626;2022-07-24T14:00:32;28.20;99.90
18434;DHT22;9344;52.294;13.626;2022-07-24T14:02:58;28.20;99.90
18434;DHT22;9344;52.294;13.626;2022-07-24T14:05:25;28.20;99.90
18434;DHT22;9344;52.294;13.626;2022-07-24T14:07:52;28.30;99.90
18434;DHT22;9344;52.294;13.626;2022-07-24T14:10:20;28.30;99.90
18434;DHT22;9344;52.294;13.626;2022-07-24T14:12:47;28.30;99.90
18434;DHT22;9344;52.294;13.626;2022-07-24T14:15:13;28.30;99.90
18434;DHT22;9344;52.294;13.626;2022-07-24T14:17:42;28.40;99.90
18434;DHT22;9344;52.294;13.626;2022-07-24T14:20:10;28.30;99.90
18434;DHT22;9344;52.294;13.626;2022-07-24T14:22:38;28.30;99.90
18434;DHT22;9344;52.294;13.626;2022-07-24T14:25:07;28.30;99.90
18434;DHT22;9344;52.294;13.626;2022-07-24T14:27:34;28.30;99.90
18434;DHT22;9344;52.294;13.626;2022-07-24T14:30:01;28.40;99.90
18434;DHT22;9344;52.294;13.626;2022-07-24T14:32:28;28.40;99.90
18434;DHT22;9344;52.294;13.626;2022-07-24T14:34:56;28.40;99.90
18434;DHT22;9344;52.294;13.626;2022-07-24T14:37:22;28.40;99.90
18434;DHT22;9344;52.294;13.626;2022-07-24T14:39:49;28.40;99.90
18434;DHT22;9344;52.294;13.626;2022-07-24T14:42:15;28.30;99.90
18434;DHT22;9344;52.294;13.626;2022-07-24T14:44:42;28.10;99.90
18434;DHT22;9344;52.294;13.626;2022-07-24T14:47:08;28.00;99.90
18434;DHT22;9344;52.294;13.626;2022-07-24T14:49:35;27.90;99.90
18434;DHT22;9344;52.294;13.626;2022-07-24T14:52:03;27.90;99.90
18434;DHT22;9344;52.294;13.626;2022-07-24T14:54:30;27.90;99.90
18434;DHT22;9344;52.294;13.626;2022-07-24T14:56:56;28.00;99.90
18434;DHT22;9344;52.294;13.626;2022-07-24T14:59:26;28.00;99.90
18434;DHT22;9344;52.294;13.626;2022-07-24T15:01:52;28.20;99.90
18434;DHT22;9344;52.294;13.626;2022-07-24T15:04:19;28.20;99.90
18434;DHT22;9344;52.294;13.626;2022-07-24T15:06:45;28.10;99.90
18434;DHT22;9344;52.294;13.626;2022-07-24T15:09:13;28.00;99.90
18434;DHT22;9344;52.294;13.626;2022-07-24T15:11:40;28.00;99.90
18434;DHT22;9344;52.294;13.626;2022-07-24T15:14:06;28.00;99.90
18434;DHT22;9344;52.294;13.626;2022-07-24T15:16:33;28.10;99.90
18434;DHT22;9344;52.294;13.626;2022-07-24T15:18:59;28.00;99.90
18434;DHT22;9344;52.294;13.626;2022-07-24T15:21:26;27.90;99.90
18434;DHT22;9344;52.294;13.626;2022-07-24T15:23:52;28.00;99.90
18434;DHT22;9344;52.294;13.626;2022-07-24T15:26:20;28.00;99.90
18434;DHT22;9344;52.294;13.626;2022-07-24T15:28:46;28.00;99.90
18434;DHT22;9344;52.294;13.626;2022-07-24T15:31:13;28.00;99.90
18434;DHT22;9344;52.294;13.626;2022-07-24T15:33:42;27.90;99.90
18434;DHT22;9344;52.294;13.626;2022-07-24T15:36:08;27.90;99.90